createdAt,value
2023-05-05T00:00:04.675Z,42.70117
2023-05-05T00:00:34.596Z,42.76465
2023-05-05T00:01:04.594Z,43.37793
2023-05-05T00:01:34.596Z,42.55957
2023-05-05T00:02:04.647Z,42.9668
2023-05-05T00:02:34.722Z,42.53906
2023-05-05T00:03:04.696Z,41.58203
2023-05-05T00:03:34.656Z,41.08496
2023-05-05T00:04:04.652Z,44.20703
2023-05-05T00:04:34.587Z,45.13281
2023-05-05T00:05:04.593Z,46.08887
2023-05-05T00:05:34.590Z,44.77148
2023-05-05T00:06:04.595Z,44.25098
2023-05-05T00:06:34.592Z,44.36523
2023-05-05T00:07:04.596Z,43.44629
2023-05-05T00:07:34.589Z,43.0332
2023-05-05T00:08:04.601Z,43.45215
2023-05-05T00:08:34.596Z,44.16016
2023-05-05T00:09:04.601Z,44.96875
2023-05-05T00:09:34.596Z,45.89551
2023-05-05T00:10:04.614Z,46.71191
2023-05-05T00:10:34.591Z,43.9668
2023-05-05T00:11:04.607Z,43.51465
2023-05-05T00:11:34.612Z,44.7041
2023-05-05T00:12:04.609Z,45.13477
2023-05-05T00:12:34.609Z,46.27148
2023-05-05T00:13:04.634Z,45.66699
2023-05-05T00:13:34.601Z,45.74414
2023-05-05T00:14:04.602Z,45.37207
2023-05-05T00:14:34.608Z,44.75586
2023-05-05T00:15:04.595Z,46.1875
2023-05-05T00:15:34.592Z,45.47852
2023-05-05T00:16:04.598Z,44.90234
2023-05-05T00:16:34.608Z,44.63672
2023-05-05T00:17:04.629Z,44.79004
2023-05-05T00:17:34.648Z,45.19629
2023-05-05T00:18:04.671Z,45.27344
2023-05-05T00:18:34.606Z,45.03223
2023-05-05T00:19:04.610Z,45.30664
2023-05-05T00:19:34.615Z,45.0625
2023-05-05T00:20:04.613Z,46.3623
2023-05-05T00:20:34.598Z,45.72168
2023-05-05T00:21:04.605Z,46.06152
2023-05-05T00:21:34.596Z,45.16699
2023-05-05T00:22:04.612Z,44.75098
2023-05-05T00:22:34.592Z,46.85938
2023-05-05T00:23:04.597Z,47.25879
2023-05-05T00:23:34.599Z,47.3125
2023-05-05T00:24:04.600Z,46.17383
2023-05-05T00:24:34.601Z,45.80762
2023-05-05T00:25:04.636Z,45.14746
2023-05-05T00:25:34.602Z,45.87695
2023-05-05T00:26:04.600Z,46.7832
2023-05-05T00:26:34.598Z,46.13672
2023-05-05T00:27:04.596Z,47.42676
2023-05-05T00:27:34.600Z,46.70117
2023-05-05T00:28:04.596Z,47.29785
2023-05-05T00:28:34.610Z,46.99805
2023-05-05T00:29:04.600Z,46.45703
2023-05-05T00:29:34.593Z,46.14746
2023-05-05T00:30:04.599Z,46.99609
2023-05-05T00:30:34.622Z,46.68945
2023-05-05T00:31:04.622Z,47.54785
2023-05-05T00:31:34.699Z,47.3584
2023-05-05T00:32:04.620Z,47.49805
2023-05-05T00:32:34.633Z,47.04102
2023-05-05T00:33:04.679Z,46.99316
2023-05-05T00:33:34.613Z,47.78223
2023-05-05T00:34:04.607Z,46.62402
2023-05-05T00:34:34.602Z,46.75586
2023-05-05T00:35:04.629Z,46.40332
2023-05-05T00:35:34.629Z,47.39258
2023-05-05T00:36:04.603Z,46.08203
2023-05-05T00:36:34.601Z,45.92676
2023-05-05T00:37:04.607Z,43.14746
2023-05-05T00:37:34.603Z,42.99316
2023-05-05T00:38:04.608Z,42.69824
2023-05-05T00:38:34.608Z,44.33301
2023-05-05T00:39:04.611Z,46.65625
2023-05-05T00:39:34.601Z,45.86523
2023-05-05T00:40:04.645Z,44.31445
2023-05-05T00:40:34.627Z,43.45508
2023-05-05T00:41:04.602Z,40.32129
2023-05-05T00:41:34.606Z,39.29688
2023-05-05T00:42:04.609Z,39.91992
2023-05-05T00:42:34.612Z,40.96094
2023-05-05T00:43:04.614Z,43.97559
2023-05-05T00:43:34.614Z,40.68262
2023-05-05T00:44:04.612Z,41.61133
2023-05-05T00:44:34.607Z,44.75781
2023-05-05T00:45:04.607Z,43.19727
2023-05-05T00:45:34.603Z,42.43945
2023-05-05T00:46:04.671Z,43.73438
2023-05-05T00:46:34.635Z,45.18164
2023-05-05T00:47:04.620Z,44.45801
2023-05-05T00:47:34.674Z,42.83496
2023-05-05T00:48:04.728Z,41.42188
2023-05-05T00:48:34.622Z,42.29297
2023-05-05T00:49:04.647Z,44.37891
2023-05-05T00:49:34.701Z,44.25977
2023-05-05T00:50:04.655Z,43.95801
2023-05-05T00:50:34.610Z,44.09668
2023-05-05T00:51:04.613Z,43.12598
2023-05-05T00:51:34.624Z,41.83594
2023-05-05T00:52:04.627Z,41.00781
2023-05-05T00:52:34.618Z,44.59082
2023-05-05T00:53:04.616Z,42.55957
2023-05-05T00:53:34.614Z,40.58887
2023-05-05T00:54:04.610Z,39.49121
2023-05-05T00:54:34.617Z,41.35254
2023-05-05T00:55:04.613Z,43.9209
2023-05-05T00:55:34.610Z,41.35254
2023-05-05T00:56:04.621Z,41.86914
2023-05-05T00:56:34.616Z,42.68164
2023-05-05T00:57:04.628Z,41.01367
2023-05-05T00:57:34.614Z,38.90039
2023-05-05T00:58:04.622Z,39.02148
2023-05-05T00:58:34.614Z,38.1543
2023-05-05T00:59:04.614Z,37.97363
2023-05-05T00:59:34.637Z,38.19922
2023-05-05T01:00:04.625Z,38.59082
2023-05-05T01:00:34.618Z,38.36035
2023-05-05T01:01:04.616Z,38.06543
2023-05-05T01:01:34.628Z,39.13672
2023-05-05T01:02:04.703Z,38.73926
2023-05-05T01:02:34.662Z,38.83789
2023-05-05T01:03:04.680Z,39.61621
2023-05-05T01:03:34.702Z,38.83887
2023-05-05T01:04:04.712Z,38.69434
2023-05-05T01:04:34.627Z,38.67285
2023-05-05T01:05:04.620Z,38.78613
2023-05-05T01:05:34.620Z,38.69922
2023-05-05T01:06:04.621Z,38.30273
2023-05-05T01:06:34.661Z,37.83398
2023-05-05T01:07:04.615Z,37.89844
2023-05-05T01:07:34.612Z,37.78516
2023-05-05T01:08:04.644Z,37.78027
2023-05-05T01:08:34.612Z,37.78809
2023-05-05T01:09:04.614Z,37.76563
2023-05-05T01:09:34.612Z,37.83691
2023-05-05T01:10:18.133Z,37.81738
2023-05-05T01:10:35.615Z,37.47266
2023-05-05T01:11:04.617Z,38.47266
2023-05-05T01:11:34.616Z,38.32617
2023-05-05T01:12:04.620Z,38.43164
2023-05-05T01:12:34.632Z,38.29785
2023-05-05T01:13:04.710Z,37.81738
2023-05-05T01:13:34.621Z,37.7793
2023-05-05T01:14:04.611Z,37.61133
2023-05-05T01:14:34.623Z,37.51953
2023-05-05T01:15:04.617Z,37.77344
2023-05-05T01:15:34.623Z,37.97266
2023-05-05T01:16:04.627Z,37.72852
2023-05-05T01:16:34.673Z,37.50781
2023-05-05T01:17:04.620Z,37.55566
2023-05-05T01:17:34.636Z,37.96094
2023-05-05T01:18:04.633Z,38.41211
2023-05-05T01:18:34.623Z,38.08203
2023-05-05T01:19:04.614Z,37.5293
2023-05-05T01:19:34.622Z,38.00293
2023-05-05T01:20:04.618Z,38.59961
2023-05-05T01:20:34.613Z,38.36621
2023-05-05T01:21:04.618Z,37.94824
2023-05-05T01:21:34.626Z,38.30469
2023-05-05T01:22:04.616Z,37.74805
2023-05-05T01:22:34.625Z,38.21777
2023-05-05T01:23:04.613Z,38.3252
2023-05-05T01:23:34.613Z,38.10352
2023-05-05T01:24:04.625Z,38.08691
2023-05-05T01:24:34.626Z,37.48535
2023-05-05T01:25:04.621Z,37.30078
2023-05-05T01:25:34.628Z,37.12109
2023-05-05T01:26:04.624Z,37.22656
2023-05-05T01:26:34.623Z,37.56348
2023-05-05T01:27:04.639Z,37.91699
2023-05-05T01:27:34.634Z,37.36719
2023-05-05T01:28:04.625Z,37.51074
2023-05-05T01:28:34.627Z,37.81738
2023-05-05T01:29:04.616Z,37.71777
2023-05-05T01:29:34.627Z,38.17773
2023-05-05T01:30:04.639Z,38.18359
2023-05-05T01:30:34.626Z,38.41309
2023-05-05T01:31:04.617Z,38.34766
2023-05-05T01:31:34.669Z,38.63574
2023-05-05T01:32:04.644Z,37.32813
2023-05-05T01:32:34.652Z,38.29297
2023-05-05T01:33:04.622Z,38.79395
2023-05-05T01:33:34.647Z,38.74609
2023-05-05T01:34:04.631Z,38.57129
2023-05-05T01:34:34.643Z,38.76465
2023-05-05T01:35:04.622Z,38.74805
2023-05-05T01:35:34.626Z,39.0752
2023-05-05T01:36:04.623Z,39.61035
2023-05-05T01:36:34.622Z,39.53223
2023-05-05T01:37:04.689Z,39.67383
2023-05-05T01:37:34.621Z,39.55469
2023-05-05T01:38:04.622Z,38.9834
2023-05-05T01:38:34.620Z,39.65625
2023-05-05T01:39:04.620Z,39.16895
2023-05-05T01:39:34.624Z,39.30371
2023-05-05T01:40:04.743Z,39.24609
2023-05-05T01:40:34.619Z,39.46875
2023-05-05T01:41:04.623Z,39.27441
2023-05-05T01:41:34.636Z,39.02441
2023-05-05T01:42:04.619Z,38.78516
2023-05-05T01:42:34.617Z,39.06641
2023-05-05T01:43:04.636Z,39.53516
2023-05-05T01:43:34.631Z,39.2041
2023-05-05T01:44:04.620Z,38.55762
2023-05-05T01:44:34.631Z,39.44336
2023-05-05T01:45:04.621Z,39.70996
2023-05-05T01:45:34.676Z,39.21582
2023-05-05T01:46:04.652Z,38.60547
2023-05-05T01:46:34.623Z,38.16309
2023-05-05T01:47:04.624Z,38.25
2023-05-05T01:47:34.659Z,38.94531
2023-05-05T01:48:04.672Z,39.19727
2023-05-05T01:48:34.623Z,38.55371
2023-05-05T01:49:04.629Z,38.60547
2023-05-05T01:49:34.627Z,39.34473
2023-05-05T01:50:04.636Z,38.44922
2023-05-05T01:50:34.622Z,38.77051
2023-05-05T01:51:04.625Z,39.42773
2023-05-05T01:51:34.625Z,39.20605
2023-05-05T01:52:04.625Z,39.52051
2023-05-05T01:52:34.625Z,39.83301
2023-05-05T01:53:04.634Z,39.42773
2023-05-05T01:53:34.623Z,39.2666
2023-05-05T01:54:04.623Z,39.4873
2023-05-05T01:54:34.628Z,39.70508
2023-05-05T01:55:04.619Z,39.48926
2023-05-05T01:55:34.620Z,39.93652
2023-05-05T01:56:04.632Z,39.81836
2023-05-05T01:56:34.624Z,39.70703
2023-05-05T01:57:04.623Z,39.88477
2023-05-05T01:57:34.631Z,39.57129
2023-05-05T01:58:04.628Z,39.66406
2023-05-05T01:58:34.627Z,40.18555
2023-05-05T01:59:04.635Z,40.31152
2023-05-05T01:59:34.624Z,39.94531
2023-05-05T02:00:04.702Z,40.71973
2023-05-05T02:00:34.636Z,38.88574
2023-05-05T02:01:04.694Z,39.50098
2023-05-05T02:01:34.699Z,39.6123
2023-05-05T02:02:04.630Z,39.01074
2023-05-05T02:02:34.711Z,38.80566
2023-05-05T02:03:04.739Z,38.91309
2023-05-05T02:03:34.710Z,39.61328
2023-05-05T02:04:04.624Z,39.83789
2023-05-05T02:04:34.633Z,39.55664
2023-05-05T02:05:04.667Z,40.17285
2023-05-05T02:05:34.634Z,39.48535
2023-05-05T02:06:04.627Z,39.76758
2023-05-05T02:06:34.635Z,39.14355
2023-05-05T02:07:04.629Z,38.44922
2023-05-05T02:07:34.642Z,39.10645
2023-05-05T02:08:04.622Z,39.59961
2023-05-05T02:08:34.625Z,39.43555
2023-05-05T02:09:04.626Z,38.94531
2023-05-05T02:09:34.632Z,39.10254
2023-05-05T02:10:04.696Z,38.29785
2023-05-05T02:10:34.629Z,38.80078
2023-05-05T02:11:04.629Z,39.05273
2023-05-05T02:11:34.628Z,38.47656
2023-05-05T02:12:04.629Z,38.90625
2023-05-05T02:12:34.650Z,38.92188
2023-05-05T02:13:04.718Z,38.85547
2023-05-05T02:13:34.676Z,38.52734
2023-05-05T02:14:04.688Z,39.23145
2023-05-05T02:14:34.634Z,39.06055
2023-05-05T02:15:04.642Z,38.50977
2023-05-05T02:15:34.651Z,38.30566
2023-05-05T02:16:04.661Z,38.37598
2023-05-05T02:16:34.633Z,38.71094
2023-05-05T02:17:04.631Z,37.57031
2023-05-05T02:17:34.646Z,38.61621
2023-05-05T02:18:04.677Z,38.9375
2023-05-05T02:18:34.630Z,38.99902
2023-05-05T02:19:04.643Z,39.02246
2023-05-05T02:19:34.647Z,38.99414
2023-05-05T02:20:04.697Z,38.84961
2023-05-05T02:20:34.631Z,38.44434
2023-05-05T02:21:04.626Z,38.57031
2023-05-05T02:21:34.631Z,38.37012
2023-05-05T02:22:04.632Z,38.16211
2023-05-05T02:22:34.637Z,38.0127
2023-05-05T02:23:04.645Z,37.52832
2023-05-05T02:23:34.630Z,37.30664
2023-05-05T02:24:04.632Z,37.29102
2023-05-05T02:24:34.639Z,37.13379
2023-05-05T02:25:04.646Z,36.7793
2023-05-05T02:25:34.641Z,36.79785
2023-05-05T02:26:04.654Z,37.44922
2023-05-05T02:26:34.638Z,37.50293
2023-05-05T02:27:04.643Z,37.03223
2023-05-05T02:27:34.630Z,37.19043
2023-05-05T02:28:04.640Z,37.20703
2023-05-05T02:28:34.646Z,38.10645
2023-05-05T02:29:04.644Z,38.05664
2023-05-05T02:29:34.645Z,37.62891
2023-05-05T02:30:04.649Z,37.07129
2023-05-05T02:30:34.655Z,37.94922
2023-05-05T02:31:04.724Z,37.96094
2023-05-05T02:31:34.669Z,38.0918
2023-05-05T02:32:04.643Z,37.19531
2023-05-05T02:32:34.671Z,38.19531
2023-05-05T02:33:04.720Z,38.39746
2023-05-05T02:33:34.635Z,38.2832
2023-05-05T02:34:04.638Z,38.83105
2023-05-05T02:34:34.640Z,37.84277
2023-05-05T02:35:04.642Z,37.70996
2023-05-05T02:35:34.641Z,38.05176
2023-05-05T02:36:04.649Z,38.3291
2023-05-05T02:36:34.637Z,38.32031
2023-05-05T02:37:04.638Z,38.48047
2023-05-05T02:37:34.642Z,37.5
2023-05-05T02:38:04.645Z,37.31543
2023-05-05T02:38:34.647Z,37.4248
2023-05-05T02:39:04.685Z,37.44824
2023-05-05T02:39:34.652Z,36.84277
2023-05-05T02:40:04.702Z,37.26855
2023-05-05T02:40:34.645Z,37.42188
2023-05-05T02:41:04.644Z,37.50293
2023-05-05T02:41:34.646Z,36.93555
2023-05-05T02:42:04.645Z,36.52148
2023-05-05T02:42:34.637Z,36.47754
2023-05-05T02:43:04.683Z,35.72168
2023-05-05T02:43:34.641Z,35.72559
2023-05-05T02:44:04.640Z,36.37109
2023-05-05T02:44:34.646Z,36.40039
2023-05-05T02:45:04.638Z,36.50684
2023-05-05T02:45:34.644Z,35.63281
2023-05-05T02:46:04.668Z,35.98242
2023-05-05T02:46:34.735Z,36.25293
2023-05-05T02:47:04.640Z,36.59082
2023-05-05T02:47:34.682Z,36.22559
2023-05-05T02:48:04.677Z,35.91016
2023-05-05T02:48:34.668Z,36.21582
2023-05-05T02:49:04.639Z,36.52246
2023-05-05T02:49:34.647Z,36.69824
2023-05-05T02:50:04.643Z,36.04492
2023-05-05T02:50:34.643Z,35.68164
2023-05-05T02:51:04.641Z,36.0127
2023-05-05T02:51:34.644Z,35.94238
2023-05-05T02:52:04.639Z,36.1543
2023-05-05T02:52:34.650Z,36.41699
2023-05-05T02:53:04.647Z,36.29395
2023-05-05T02:53:34.638Z,36.72559
2023-05-05T02:54:04.648Z,36.2793
2023-05-05T02:54:34.645Z,35.91016
2023-05-05T02:55:04.644Z,35.60352
2023-05-05T02:55:34.654Z,36.10254
2023-05-05T02:56:04.646Z,35.94238
2023-05-05T02:56:34.641Z,36.13086
2023-05-05T02:57:04.650Z,36.85449
2023-05-05T02:57:34.642Z,36.36621
2023-05-05T02:58:04.643Z,37.01563
2023-05-05T02:58:34.648Z,37.14844
2023-05-05T02:59:04.646Z,37.22656
2023-05-05T02:59:34.649Z,37.02441
2023-05-05T03:00:04.718Z,36.69238
2023-05-05T03:00:34.641Z,36.99023
2023-05-05T03:01:04.716Z,36.88574
2023-05-05T03:01:34.688Z,36.03613
2023-05-05T03:02:04.647Z,36.35352
2023-05-05T03:02:34.715Z,36.80566
2023-05-05T03:03:04.750Z,36.62695
2023-05-05T03:03:34.764Z,36.22559
2023-05-05T03:04:04.647Z,35.99023
2023-05-05T03:04:34.649Z,35.43945
2023-05-05T03:05:04.669Z,36.47559
2023-05-05T03:05:34.649Z,36.35938
2023-05-05T03:06:04.651Z,36.33789
2023-05-05T03:06:34.658Z,37.22656
2023-05-05T03:07:04.650Z,37.14063
2023-05-05T03:07:34.653Z,37.18066
2023-05-05T03:08:04.648Z,37.16113
2023-05-05T03:08:34.645Z,37.20508
2023-05-05T03:09:04.659Z,36.73242
2023-05-05T03:09:34.647Z,36.57129
2023-05-05T03:10:04.646Z,37.25977
2023-05-05T03:10:34.645Z,37.34473
2023-05-05T03:11:04.657Z,36.75488
2023-05-05T03:11:34.651Z,37.38477
2023-05-05T03:12:04.659Z,37.17676
2023-05-05T03:12:34.684Z,37.14551
2023-05-05T03:13:04.728Z,36.37109
2023-05-05T03:13:34.640Z,36
2023-05-05T03:14:04.648Z,35.94531
2023-05-05T03:14:34.651Z,35.78516
2023-05-05T03:15:04.664Z,36.45117
2023-05-05T03:15:34.644Z,37.48242
2023-05-05T03:16:04.663Z,37.43164
2023-05-05T03:16:34.704Z,37.57813
2023-05-05T03:17:04.654Z,37.65527
2023-05-05T03:17:34.684Z,36.75879
2023-05-05T03:18:04.706Z,37.82715
2023-05-05T03:18:34.657Z,36.4502
2023-05-05T03:19:04.669Z,36.92969
2023-05-05T03:19:34.644Z,37.28125
2023-05-05T03:20:04.685Z,36.59277
2023-05-05T03:20:34.648Z,35.82227
2023-05-05T03:21:04.647Z,35.5791
2023-05-05T03:21:34.652Z,35.92578
2023-05-05T03:22:04.651Z,36.2373
2023-05-05T03:22:34.653Z,35.80371
2023-05-05T03:23:04.656Z,35.29395
2023-05-05T03:23:34.650Z,35.06152
2023-05-05T03:24:04.653Z,35.0498
2023-05-05T03:24:34.659Z,34.93945
2023-05-05T03:25:04.667Z,34.5791
2023-05-05T03:25:34.651Z,34.03516
2023-05-05T03:26:04.662Z,33.22168
2023-05-05T03:26:34.648Z,33.19824
2023-05-05T03:27:04.647Z,33.13281
2023-05-05T03:27:34.657Z,33.03027
2023-05-05T03:28:04.653Z,32.91406
2023-05-05T03:28:34.656Z,33.17285
2023-05-05T03:29:04.656Z,32.97461
2023-05-05T03:29:34.663Z,32.76855
2023-05-05T03:30:04.678Z,32.51758
2023-05-05T03:30:34.649Z,32.2334
2023-05-05T03:31:04.652Z,33.45703
2023-05-05T03:31:34.677Z,33.39648
2023-05-05T03:32:04.791Z,32.9541
2023-05-05T03:32:34.678Z,33.14258
2023-05-05T03:33:04.717Z,32.43164
2023-05-05T03:33:34.650Z,32.41016
2023-05-05T03:34:04.647Z,31.45117
2023-05-05T03:34:34.650Z,31.52246
2023-05-05T03:35:04.653Z,30.89355
2023-05-05T03:35:34.646Z,31.09277
2023-05-05T03:36:04.682Z,30.06738
2023-05-05T03:36:34.655Z,29.9707
2023-05-05T03:37:04.660Z,29.90234
2023-05-05T03:37:34.661Z,27.94043
2023-05-05T03:38:04.669Z,26.15137
2023-05-05T03:38:34.731Z,24.0293
2023-05-05T03:39:04.656Z,23.39551
2023-05-05T03:39:34.649Z,22.47168
2023-05-05T03:40:04.664Z,20.75977
2023-05-05T03:40:43.607Z,20.32715
2023-05-05T03:41:05.751Z,19.08594
2023-05-05T03:41:34.649Z,19.05762
2023-05-05T03:42:04.755Z,20.47656
2023-05-05T03:42:34.654Z,20.86328
2023-05-05T03:43:04.657Z,19.49121
2023-05-05T03:43:34.667Z,18.85059
2023-05-05T03:44:04.651Z,19.42773
2023-05-05T03:44:34.659Z,21.75098
2023-05-05T03:45:04.649Z,21.71094
2023-05-05T03:45:34.736Z,22.99609
2023-05-05T03:46:04.732Z,21.95801
2023-05-05T03:46:34.653Z,20.8916
2023-05-05T03:47:04.662Z,19.48242
2023-05-05T03:47:34.673Z,18.55664
2023-05-05T03:48:04.725Z,19.29785
2023-05-05T03:48:34.654Z,19.74121
2023-05-05T03:49:04.666Z,19.875
2023-05-05T03:49:34.653Z,19.68555
2023-05-05T03:50:04.679Z,19.4834
2023-05-05T03:50:34.669Z,19.01465
2023-05-05T03:51:04.650Z,19.37402
2023-05-05T03:51:34.664Z,20.24414
2023-05-05T03:52:04.660Z,18.76465
2023-05-05T03:52:34.653Z,17.27734
2023-05-05T03:53:04.667Z,17.04688
2023-05-05T03:53:34.665Z,17.79883
2023-05-05T03:54:04.660Z,18.49121
2023-05-05T03:54:34.659Z,19.08008
2023-05-05T03:55:04.655Z,19.64648
2023-05-05T03:55:34.667Z,19.9541
2023-05-05T03:56:04.659Z,19.37305
2023-05-05T03:56:34.670Z,20.50195
2023-05-05T03:57:04.662Z,21.53418
2023-05-05T03:57:34.668Z,21.27148
2023-05-05T03:58:04.663Z,21.40039
2023-05-05T03:58:34.674Z,22.42676
2023-05-05T03:59:04.658Z,23.70605
2023-05-05T03:59:34.663Z,22.55762
2023-05-05T04:00:04.667Z,20.87891
2023-05-05T04:00:34.671Z,19.62598
2023-05-05T04:01:04.660Z,19.27539
2023-05-05T04:01:34.665Z,20.1123
2023-05-05T04:02:04.688Z,19.9248
2023-05-05T04:02:34.740Z,19.24414
2023-05-05T04:03:04.925Z,20.44336
2023-05-05T04:03:34.736Z,19.88965
2023-05-05T04:04:04.704Z,19.9668
2023-05-05T04:04:34.788Z,21.06445
2023-05-05T04:05:04.667Z,21.51367
2023-05-05T04:05:34.731Z,21.21289
2023-05-05T04:06:04.666Z,20.85547
2023-05-05T04:06:34.662Z,21.2793
2023-05-05T04:07:04.668Z,21.83203
2023-05-05T04:07:34.664Z,21.62207
2023-05-05T04:08:04.674Z,21.86914
2023-05-05T04:08:34.669Z,22.08594
2023-05-05T04:09:04.670Z,21.92188
2023-05-05T04:09:34.668Z,21.02441
2023-05-05T04:10:04.756Z,21.41113
2023-05-05T04:10:34.674Z,21.02441
2023-05-05T04:11:04.672Z,21.49512
2023-05-05T04:11:34.671Z,22.2832
2023-05-05T04:12:04.677Z,21.77148
2023-05-05T04:12:34.688Z,22.8252
2023-05-05T04:13:04.765Z,23.32129
2023-05-05T04:13:34.672Z,24.00781
2023-05-05T04:14:04.669Z,25.07324
2023-05-05T04:14:34.670Z,26.25195
2023-05-05T04:15:04.701Z,27.30371
2023-05-05T04:15:34.747Z,27.35059
2023-05-05T04:16:04.718Z,27.48828
2023-05-05T04:16:34.686Z,27.43164
2023-05-05T04:17:04.670Z,25.96875
2023-05-05T04:17:34.685Z,26.09277
2023-05-05T04:18:04.718Z,28.08398
2023-05-05T04:18:34.701Z,28.63965
2023-05-05T04:19:04.671Z,28.87207
2023-05-05T04:19:34.724Z,29.1123
2023-05-05T04:20:04.732Z,28.61523
2023-05-05T04:20:34.674Z,28.05273
2023-05-05T04:21:04.692Z,28.82031
2023-05-05T04:21:34.678Z,28.45703
2023-05-05T04:22:04.672Z,27.92871
2023-05-05T04:22:34.680Z,27.49316
2023-05-05T04:23:04.687Z,27.24805
2023-05-05T04:23:34.689Z,26.73242
2023-05-05T04:24:04.684Z,27.21484
2023-05-05T04:24:34.669Z,26.09082
2023-05-05T04:25:04.679Z,26.08496
2023-05-05T04:25:34.671Z,24.8916
2023-05-05T04:26:04.674Z,24.33789
2023-05-05T04:26:34.695Z,23.45703
2023-05-05T04:27:04.670Z,23.86621
2023-05-05T04:27:34.713Z,23.71973
2023-05-05T04:28:04.680Z,24.05176
2023-05-05T04:28:34.696Z,23.22656
2023-05-05T04:29:04.676Z,22.62695
2023-05-05T04:29:34.676Z,22.24609
2023-05-05T04:30:04.683Z,21.7373
2023-05-05T04:30:34.677Z,20.62109
2023-05-05T04:31:04.695Z,20.32031
2023-05-05T04:31:34.709Z,21.0957
2023-05-05T04:32:04.676Z,22.63672
2023-05-05T04:32:34.729Z,23.08008
2023-05-05T04:33:04.677Z,24.09668
2023-05-05T04:33:34.678Z,23.72363
2023-05-05T04:34:04.673Z,22.15039
2023-05-05T04:34:34.674Z,21.48828
2023-05-05T04:35:04.679Z,20.50586
2023-05-05T04:35:34.673Z,19.94238
2023-05-05T04:36:04.675Z,21.60156
2023-05-05T04:36:34.670Z,22.84082
2023-05-05T04:37:04.679Z,22.86816
2023-05-05T04:37:34.676Z,22.67188
2023-05-05T04:38:04.694Z,23.61719
2023-05-05T04:38:34.707Z,24.38184
2023-05-05T04:39:04.712Z,24.14063
2023-05-05T04:39:34.677Z,23.15332
2023-05-05T04:40:04.682Z,24.37207
2023-05-05T04:40:34.696Z,25.54883
2023-05-05T04:41:04.683Z,25.50684
2023-05-05T04:41:34.684Z,24.66016
2023-05-05T04:42:04.704Z,23.64551
2023-05-05T04:42:34.684Z,24.32227
2023-05-05T04:43:04.679Z,25.05859
2023-05-05T04:43:34.693Z,24.78809
2023-05-05T04:44:04.690Z,25.42969
2023-05-05T04:44:34.675Z,26.0332
2023-05-05T04:45:04.679Z,26.70703
2023-05-05T04:45:34.687Z,27.65137
2023-05-05T04:46:04.710Z,27.0791
2023-05-05T04:46:34.788Z,27.32617
2023-05-05T04:47:04.684Z,26.58984
2023-05-05T04:47:34.701Z,26.34082
2023-05-05T04:48:04.702Z,25.23828
2023-05-05T04:48:34.697Z,24.61914
2023-05-05T04:49:04.692Z,24.71484
2023-05-05T04:49:34.689Z,24.5127
2023-05-05T04:50:04.683Z,25.21875
2023-05-05T04:50:34.681Z,24.44043
2023-05-05T04:51:04.693Z,24.75781
2023-05-05T04:51:34.688Z,24.91992
2023-05-05T04:52:04.684Z,24.91406
2023-05-05T04:52:34.679Z,25.17188
2023-05-05T04:53:04.682Z,25.15527
2023-05-05T04:53:34.684Z,25.49707
2023-05-05T04:54:04.682Z,26.33691
2023-05-05T04:54:34.683Z,25.63867
2023-05-05T04:55:04.702Z,26.45703
2023-05-05T04:55:34.682Z,26.02441
2023-05-05T04:56:04.682Z,26.02441
2023-05-05T04:56:34.687Z,25.82324
2023-05-05T04:57:04.689Z,25.57715
2023-05-05T04:57:34.687Z,26.35156
2023-05-05T04:58:04.681Z,25.77246
2023-05-05T04:58:34.693Z,24.9834
2023-05-05T04:59:04.692Z,25.27832
2023-05-05T04:59:34.684Z,25.26953
2023-05-05T05:00:04.691Z,25.41992
2023-05-05T05:00:34.688Z,25.62988
2023-05-05T05:01:04.682Z,23.75586
2023-05-05T05:01:36.918Z,23.41895
2023-05-05T05:02:05.640Z,23.10156
2023-05-05T05:02:34.734Z,24.64258
2023-05-05T05:03:04.799Z,25.25
2023-05-05T05:03:34.745Z,25.69434
2023-05-05T05:04:04.913Z,26.65918
2023-05-05T05:04:34.680Z,27.36621
2023-05-05T05:05:04.685Z,27.11133
2023-05-05T05:05:34.687Z,25.87305
2023-05-05T05:06:04.684Z,25.12598
2023-05-05T05:06:34.679Z,25.42285
2023-05-05T05:07:04.696Z,25.95117
2023-05-05T05:07:34.684Z,25.87207
2023-05-05T05:08:04.686Z,25.88086
2023-05-05T05:08:34.682Z,24.88281
2023-05-05T05:09:04.690Z,25.45996
2023-05-05T05:09:34.697Z,26.62305
2023-05-05T05:10:04.700Z,27.46777
2023-05-05T05:10:34.691Z,26.35156
2023-05-05T05:11:04.690Z,25.65723
2023-05-05T05:11:34.695Z,25.11328
2023-05-05T05:12:04.686Z,26.31738
2023-05-05T05:12:34.729Z,25.46289
2023-05-05T05:13:04.772Z,25.15332
2023-05-05T05:13:34.690Z,24.84766
2023-05-05T05:14:04.684Z,23.34375
2023-05-05T05:14:34.690Z,22.63867
2023-05-05T05:15:04.686Z,22.57031
2023-05-05T05:15:34.688Z,22.85059
2023-05-05T05:16:04.710Z,23.45996
2023-05-05T05:16:34.697Z,22.36621
2023-05-05T05:17:04.693Z,22.19629
2023-05-05T05:17:34.727Z,21.32715
2023-05-05T05:18:04.738Z,21.61035
2023-05-05T05:18:34.698Z,20.20508
2023-05-05T05:19:04.688Z,20.40137
2023-05-05T05:19:34.689Z,20.68066
2023-05-05T05:20:04.700Z,19.8457
2023-05-05T05:20:34.710Z,19.44727
2023-05-05T05:21:04.690Z,18.37012
2023-05-05T05:21:34.692Z,18.92773
2023-05-05T05:22:04.716Z,18.2041
2023-05-05T05:22:34.691Z,17.33887
2023-05-05T05:23:04.698Z,18.20801
2023-05-05T05:23:34.704Z,17.14453
2023-05-05T05:24:04.692Z,17.08008
2023-05-05T05:24:34.701Z,16.64453
2023-05-05T05:25:04.693Z,16.70801
2023-05-05T05:25:34.718Z,17.59766
2023-05-05T05:26:04.685Z,16.93164
2023-05-05T05:26:34.710Z,15.56055
2023-05-05T05:27:04.692Z,15.54785
2023-05-05T05:27:34.691Z,14.54004
2023-05-05T05:28:35.809Z,15.04883
2023-05-05T05:29:04.691Z,14.26953
2023-05-05T05:29:34.692Z,13.0459
2023-05-05T05:30:04.699Z,12.49902
2023-05-05T05:30:34.738Z,12.10156
2023-05-05T05:31:04.698Z,12.33496
2023-05-05T05:31:34.766Z,11.81934
2023-05-05T05:32:04.751Z,12.53809
2023-05-05T05:32:34.808Z,13.01953
2023-05-05T05:33:04.805Z,12.88281
2023-05-05T05:33:34.700Z,12.20801
2023-05-05T05:34:04.701Z,11.45117
2023-05-05T05:34:34.705Z,11.41992
2023-05-05T05:35:04.696Z,12.72363
2023-05-05T05:35:34.707Z,12.54688
2023-05-05T05:36:04.694Z,13.75293
2023-05-05T05:36:34.703Z,15.35742
2023-05-05T05:37:04.693Z,15.60742
2023-05-05T05:37:34.719Z,16.14063
2023-05-05T05:38:04.695Z,14.87891
2023-05-05T05:38:34.695Z,15.2041
2023-05-05T05:39:04.693Z,15.22266
2023-05-05T05:39:34.707Z,14.55273
2023-05-05T05:40:04.697Z,14.03711
2023-05-05T05:40:34.691Z,12.9834
2023-05-05T05:41:04.699Z,13.04199
2023-05-05T05:41:34.705Z,13.98438
2023-05-05T05:42:04.718Z,14.60547
2023-05-05T05:42:34.697Z,15.15137
2023-05-05T05:43:04.699Z,14.625
2023-05-05T05:43:34.694Z,14.33203
2023-05-05T05:44:04.699Z,13.58496
2023-05-05T05:44:34.705Z,13.78223
2023-05-05T05:45:04.697Z,14.68066
2023-05-05T05:45:34.696Z,15.43652
2023-05-05T05:46:06.358Z,15.29004
2023-05-05T05:46:35.745Z,16.19824
2023-05-05T05:47:04.704Z,16.02832
2023-05-05T05:47:34.769Z,16.01758
2023-05-05T05:48:04.771Z,16.6416
2023-05-05T05:48:34.705Z,16.70996
2023-05-05T05:49:04.709Z,16.8291
2023-05-05T05:49:34.755Z,17.07129
2023-05-05T05:50:04.708Z,17.47949
2023-05-05T05:50:34.714Z,16.29688
2023-05-05T05:51:04.705Z,15.73633
2023-05-05T05:51:34.699Z,15.14453
2023-05-05T05:52:04.698Z,15.32129
2023-05-05T05:52:34.704Z,16.32715
2023-05-05T05:53:04.700Z,17.77637
2023-05-05T05:53:34.704Z,18.24316